createdAt,value
2023-11-12T00:01:52.981Z,7.06
2023-11-12T00:04:19.827Z,6.92
2023-11-12T00:06:45.783Z,6.80
2023-11-12T00:09:11.974Z,6.90
2023-11-12T00:11:41.361Z,6.79
2023-11-12T00:14:07.296Z,6.81
2023-11-12T00:16:33.504Z,6.66
2023-11-12T00:18:59.424Z,6.82
2023-11-12T00:21:25.279Z,6.85
2023-11-12T00:23:54.443Z,6.84
2023-11-12T00:26:21.633Z,6.64
2023-11-12T00:28:47.519Z,6.81
2023-11-12T00:31:13.421Z,6.74
2023-11-12T00:33:41.817Z,6.53
2023-11-12T00:36:08.870Z,6.76
2023-11-12T00:38:35.688Z,6.58
2023-11-12T00:41:01.561Z,6.50
2023-11-12T00:43:27.765Z,6.42
2023-11-12T00:45:58.622Z,6.57
2023-11-12T00:48:24.493Z,6.50
2023-11-12T00:50:50.311Z,6.48
2023-11-12T00:53:16.206Z,6.38
2023-11-12T00:55:42.151Z,6.46
2023-11-12T00:58:08.070Z,6.38
2023-11-12T01:00:34.131Z,6.47
2023-11-12T01:03:00.056Z,6.42
2023-11-12T01:05:25.999Z,6.37
2023-11-12T01:07:51.835Z,6.43
2023-11-12T01:10:17.702Z,6.39
2023-11-12T01:12:43.555Z,6.38
2023-11-12T01:15:09.501Z,6.26
2023-11-12T01:17:35.638Z,6.43
2023-11-12T01:20:01.779Z,6.35
2023-11-12T01:22:28.002Z,6.41
2023-11-12T01:24:53.889Z,6.43
2023-11-12T01:27:19.718Z,6.29
2023-11-12T01:29:45.562Z,6.28
2023-11-12T01:32:11.354Z,6.43
2023-11-12T01:34:37.181Z,6.30
2023-11-12T01:37:03.015Z,6.20
2023-11-12T01:39:28.926Z,6.19
2023-11-12T01:41:54.745Z,6.28
2023-11-12T01:44:20.779Z,6.20
2023-11-12T01:46:46.776Z,6.31
2023-11-12T01:49:13.339Z,6.29
2023-11-12T01:51:39.273Z,6.32
2023-11-12T01:54:05.353Z,6.28
2023-11-12T01:56:31.536Z,6.42
2023-11-12T01:58:58.245Z,6.42
2023-11-12T02:01:24.136Z,6.45
2023-11-12T02:03:52.549Z,6.41
2023-11-12T02:06:18.793Z,6.25
2023-11-12T02:08:45.481Z,6.42
2023-11-12T02:11:14.223Z,6.51
2023-11-12T02:13:43.808Z,6.44
2023-11-12T02:16:10.665Z,6.53
2023-11-12T02:18:36.583Z,6.50
2023-11-12T02:21:03.567Z,6.59
2023-11-12T02:23:30.178Z,6.55
2023-11-12T02:25:57.928Z,6.55
2023-11-12T02:28:23.888Z,6.63
2023-11-12T02:30:55.871Z,6.54
2023-11-12T02:33:27.793Z,6.63
2023-11-12T02:35:55.972Z,6.49
2023-11-12T02:38:23.579Z,6.59
2023-11-12T02:40:50.019Z,6.49
2023-11-12T02:43:16.764Z,6.43
2023-11-12T02:45:42.740Z,6.71
2023-11-12T02:48:08.772Z,6.55
2023-11-12T02:50:36.017Z,6.65
2023-11-12T02:53:07.641Z,6.68
2023-11-12T02:55:34.297Z,6.69
2023-11-12T02:58:00.395Z,6.65
2023-11-12T03:00:27.947Z,6.71
2023-11-12T03:02:55.414Z,6.64
2023-11-12T03:05:21.376Z,6.68
2023-11-12T03:07:47.233Z,6.66
2023-11-12T03:10:13.889Z,6.66
2023-11-12T03:12:39.774Z,6.64
2023-11-12T03:15:07.308Z,6.70
2023-11-12T03:17:34.631Z,6.53
2023-11-12T03:20:04.554Z,6.43
2023-11-12T03:22:34.855Z,6.56
2023-11-12T03:25:01.586Z,6.47
2023-11-12T03:27:28.155Z,6.46
2023-11-12T03:29:53.954Z,6.43
2023-11-12T03:32:21.878Z,6.51
2023-11-12T03:34:51.291Z,6.40
2023-11-12T03:37:21.160Z,6.52
2023-11-12T03:39:48.270Z,6.49
2023-11-12T03:42:16.317Z,6.38
2023-11-12T03:44:47.238Z,6.43
2023-11-12T03:47:13.361Z,6.40
2023-11-12T03:49:42.565Z,6.35
2023-11-12T03:52:08.957Z,6.38
2023-11-12T03:54:36.324Z,6.36
2023-11-12T03:57:02.152Z,6.24
2023-11-12T03:59:27.955Z,6.11
2023-11-12T04:01:53.767Z,5.97
2023-11-12T04:04:19.865Z,6.04
2023-11-12T04:06:45.874Z,6.05
2023-11-12T04:09:12.345Z,6.07
2023-11-12T04:11:40.789Z,6.11
2023-11-12T04:14:07.697Z,6.15
2023-11-12T04:16:35.160Z,6.09
2023-11-12T04:19:03.370Z,6.06
2023-11-12T04:21:32.224Z,6.09
2023-11-12T04:23:58.585Z,6.02
2023-11-12T04:26:25.199Z,6.17
2023-11-12T04:28:51.284Z,6.10
2023-11-12T04:31:17.397Z,5.96
2023-11-12T04:33:43.262Z,6.10
2023-11-12T04:36:09.197Z,6.09
2023-11-12T04:38:35.033Z,6.09
2023-11-12T04:41:00.894Z,6.02
2023-11-12T04:43:26.740Z,6.21
2023-11-12T04:45:52.608Z,6.21
2023-11-12T04:48:18.603Z,6.23
2023-11-12T04:50:45.926Z,6.12
2023-11-12T04:53:12.338Z,6.00
2023-11-12T04:55:38.834Z,6.03
2023-11-12T04:58:07.840Z,6.17
2023-11-12T05:00:34.104Z,6.12
2023-11-12T05:03:03.961Z,5.75
2023-11-12T05:05:30.523Z,6.01
2023-11-12T05:07:56.351Z,5.93
2023-11-12T05:10:22.237Z,6.02
2023-11-12T05:13:08.637Z,6.00
2023-11-12T05:15:35.448Z,5.95
2023-11-12T05:18:06.265Z,6.02
2023-11-12T05:20:33.958Z,5.77
2023-11-12T05:23:01.778Z,6.01
2023-11-12T05:25:28.439Z,5.86
2023-11-12T05:27:55.184Z,6.00
2023-11-12T05:30:21.288Z,5.99
2023-11-12T05:32:51.319Z,5.91
2023-11-12T05:35:17.699Z,5.98
2023-11-12T05:37:43.540Z,5.96
2023-11-12T05:40:09.933Z,5.92
2023-11-12T05:42:35.823Z,5.99
2023-11-12T05:45:02.222Z,6.18
2023-11-12T05:47:28.227Z,5.88
2023-11-12T05:49:54.087Z,6.09
2023-11-12T05:52:19.879Z,6.18
2023-11-12T05:54:45.742Z,6.17
2023-11-12T05:57:11.562Z,6.14
2023-11-12T05:59:37.364Z,6.12
2023-11-12T06:02:03.389Z,6.06
2023-11-12T06:04:29.320Z,6.16
2023-11-12T06:06:55.160Z,6.11
2023-11-12T06:09:20.981Z,6.15
2023-11-12T06:11:48.215Z,6.09
2023-11-12T06:14:14.321Z,6.18
2023-11-12T06:16:40.210Z,6.17
2023-11-12T06:19:06.103Z,6.07
2023-11-12T06:21:32.108Z,6.14
2023-11-12T06:23:57.987Z,6.09
2023-11-12T06:26:23.780Z,6.02
2023-11-12T06:28:49.835Z,5.99
2023-11-12T06:31:18.898Z,6.02
2023-11-12T06:33:44.894Z,6.00
2023-11-12T06:36:14.544Z,5.91
2023-11-12T06:38:41.788Z,5.98
2023-11-12T06:41:09.107Z,5.80
2023-11-12T06:43:34.908Z,5.86
2023-11-12T06:46:00.692Z,5.98
2023-11-12T06:48:26.558Z,6.18
2023-11-12T06:50:52.409Z,5.96
2023-11-12T06:53:18.261Z,6.05
2023-11-12T06:55:44.117Z,6.22
2023-11-12T06:58:10.389Z,6.32
2023-11-12T07:00:36.394Z,6.31
2023-11-12T07:03:02.500Z,6.44
2023-11-12T07:05:30.844Z,6.50
2023-11-12T07:07:57.725Z,6.73
2023-11-12T07:10:23.739Z,6.62
2023-11-12T07:12:50.073Z,6.78
2023-11-12T07:15:16.013Z,6.98
2023-11-12T07:17:43.857Z,7.03
2023-11-12T07:20:11.730Z,7.14
2023-11-12T07:22:37.578Z,7.04
2023-11-12T07:25:03.993Z,7.19
2023-11-12T07:27:31.648Z,7.22
2023-11-12T07:29:57.757Z,7.10
2023-11-12T07:32:23.772Z,7.20
2023-11-12T07:34:49.880Z,7.28
2023-11-12T07:37:15.839Z,7.06
2023-11-12T07:39:41.852Z,7.06
2023-11-12T07:42:07.821Z,7.16
2023-11-12T07:44:35.706Z,7.33
2023-11-12T07:47:01.606Z,7.47
2023-11-12T07:49:27.500Z,7.45
2023-11-12T07:51:53.316Z,7.58
2023-11-12T07:54:19.130Z,7.57
2023-11-12T07:56:45.069Z,7.67
2023-11-12T07:59:11.304Z,7.70
2023-11-12T08:01:37.154Z,7.81
2023-11-12T08:04:03.150Z,7.94
2023-11-12T08:06:29.045Z,7.90
2023-11-12T08:08:54.964Z,7.99
2023-11-12T08:11:20.987Z,8.16
2023-11-12T08:13:47.427Z,8.20
2023-11-12T08:16:13.757Z,8.12
2023-11-12T08:18:43.731Z,8.30
2023-11-12T08:21:10.384Z,8.33
2023-11-12T08:23:36.792Z,8.55
2023-11-12T08:26:03.381Z,8.68
2023-11-12T08:28:29.901Z,8.55
2023-11-12T08:30:55.789Z,8.72
2023-11-12T08:33:22.323Z,8.45
2023-11-12T08:35:48.151Z,8.40
2023-11-12T08:38:14.090Z,8.61
2023-11-12T08:40:42.284Z,8.63
2023-11-12T08:43:13.539Z,8.53
2023-11-12T08:45:39.929Z,8.71
2023-11-12T08:48:05.911Z,8.67
2023-11-12T08:50:32.826Z,8.66
2023-11-12T08:53:01.364Z,8.58
2023-11-12T08:55:27.450Z,8.56
2023-11-12T08:57:53.446Z,8.75
2023-11-12T09:00:19.769Z,8.63
2023-11-12T09:02:46.602Z,8.65
2023-11-12T09:05:13.409Z,8.58
2023-11-12T09:07:39.285Z,8.82
2023-11-12T09:10:05.835Z,8.87
2023-11-12T09:12:32.759Z,8.77
2023-11-12T09:14:58.637Z,8.75
2023-11-12T09:17:24.511Z,8.87
2023-11-12T09:19:50.393Z,9.05
2023-11-12T09:22:16.296Z,9.10
2023-11-12T09:24:55.237Z,9.15
2023-11-12T09:27:30.494Z,9.19
2023-11-12T09:29:56.288Z,9.16
2023-11-12T09:32:22.152Z,9.02
2023-11-12T09:34:47.972Z,9.01
2023-11-12T09:37:13.797Z,9.00
2023-11-12T09:39:39.838Z,9.12
2023-11-12T09:42:07.648Z,9.06
2023-11-12T09:44:37.969Z,9.14
2023-11-12T09:47:21.351Z,9.28
2023-11-12T09:49:50.451Z,9.38
2023-11-12T09:52:16.501Z,9.31
2023-11-12T09:54:43.675Z,9.34
2023-11-12T09:57:10.056Z,9.36
2023-11-12T09:59:36.918Z,9.33
2023-11-12T10:02:06.014Z,9.51
2023-11-12T10:04:31.923Z,9.48
2023-11-12T10:06:58.346Z,9.46
2023-11-12T10:09:30.567Z,9.37
2023-11-12T10:12:04.068Z,9.38
2023-11-12T10:14:30.059Z,9.51
2023-11-12T10:17:07.084Z,9.54
2023-11-12T10:19:34.805Z,9.39
2023-11-12T10:22:02.328Z,9.57
2023-11-12T10:24:29.438Z,9.79
2023-11-12T10:27:05.536Z,9.84
2023-11-12T10:29:31.907Z,9.81
2023-11-12T10:31:58.101Z,10.04
2023-11-12T10:34:27.410Z,10.14
2023-11-12T10:37:04.049Z,10.05
2023-11-12T10:39:41.084Z,10.26
2023-11-12T10:42:16.022Z,10.27
2023-11-12T10:44:43.146Z,10.03
2023-11-12T10:47:10.872Z,10.19
2023-11-12T10:49:40.046Z,10.23
2023-11-12T10:52:06.904Z,10.40
2023-11-12T10:54:33.492Z,10.44
2023-11-12T10:57:00.384Z,10.32
2023-11-12T10:59:29.068Z,10.53
2023-11-12T11:01:58.674Z,10.59
2023-11-12T11:04:27.053Z,10.56
2023-11-12T11:06:53.210Z,10.68
2023-11-12T11:09:21.345Z,10.75
2023-11-12T11:11:49.679Z,10.84
2023-11-12T11:14:28.287Z,10.86
2023-11-12T11:16:54.913Z,10.49
2023-11-12T11:19:43.749Z,10.41
2023-11-12T11:22:25.434Z,10.61
2023-11-12T11:24:55.375Z,10.57
2023-11-12T11:27:28.714Z,10.40
2023-11-12T11:30:15.864Z,10.42
2023-11-12T11:32:59.757Z,10.58
2023-11-12T11:35:27.038Z,10.45
2023-11-12T11:38:12.984Z,10.59
2023-11-12T11:40:40.686Z,10.54
2023-11-12T11:43:26.194Z,10.65
2023-11-12T11:46:04.313Z,10.77
2023-11-12T11:48:30.324Z,10.74
2023-11-12T11:50:59.518Z,10.91
2023-11-12T11:53:26.677Z,10.75
2023-11-12T11:56:02.164Z,10.49
2023-11-12T11:58:35.972Z,10.60
2023-11-12T12:01:01.877Z,10.79
2023-11-12T12:03:29.732Z,10.88
2023-11-12T12:05:55.900Z,10.80
2023-11-12T12:08:21.751Z,11.02
2023-11-12T12:10:48.704Z,11.04
2023-11-12T12:13:15.624Z,10.94
2023-11-12T12:15:46.099Z,10.75
2023-11-12T12:18:24.100Z,10.76
2023-11-12T12:20:52.473Z,10.86
2023-11-12T12:23:20.723Z,10.79
2023-11-12T12:25:55.652Z,10.96
2023-11-12T12:28:26.790Z,10.97
2023-11-12T12:30:53.104Z,11.20
2023-11-12T12:33:18.985Z,10.97
2023-11-12T12:35:44.818Z,11.01
2023-11-12T12:38:11.227Z,11.19
2023-11-12T12:40:37.664Z,11.15
2023-11-12T12:43:07.010Z,10.99
2023-11-12T12:45:34.990Z,11.20
2023-11-12T12:48:10.948Z,11.34
2023-11-12T12:50:36.930Z,11.41
2023-11-12T12:53:15.416Z,11.52
2023-11-12T12:55:43.753Z,11.49
2023-11-12T12:58:10.659Z,11.24
2023-11-12T13:00:39.138Z,11.42
2023-11-12T13:03:13.975Z,11.23
2023-11-12T13:05:39.841Z,11.06
2023-11-12T13:08:08.561Z,10.92
2023-11-12T13:10:34.548Z,10.91
2023-11-12T13:13:00.544Z,10.75
2023-11-12T13:15:26.920Z,10.98
2023-11-12T13:17:52.898Z,11.20
2023-11-12T13:20:21.780Z,11.12
2023-11-12T13:22:48.701Z,11.25
2023-11-12T13:25:15.986Z,11.02
2023-11-12T13:27:46.258Z,11.16
2023-11-12T13:30:13.124Z,11.14
2023-11-12T13:32:40.441Z,11.25
2023-11-12T13:35:07.635Z,11.21
2023-11-12T13:37:35.154Z,11.12
2023-11-12T13:40:05.729Z,11.09
2023-11-12T13:42:36.351Z,11.07
2023-11-12T13:45:05.719Z,10.86
2023-11-12T13:47:32.107Z,10.90
2023-11-12T13:49:57.925Z,11.08
2023-11-12T13:52:23.742Z,11.01
2023-11-12T13:54:50.539Z,11.14
2023-11-12T13:57:16.535Z,11.20
2023-11-12T13:59:42.477Z,11.18
2023-11-12T14:02:11.404Z,11.33
2023-11-12T14:04:37.420Z,11.31
2023-11-12T14:07:04.859Z,11.36
2023-11-12T14:09:33.448Z,11.34
2023-11-12T14:12:06.003Z,11.33
2023-11-12T14:14:32.383Z,11.33
2023-11-12T14:16:58.386Z,11.40
2023-11-12T14:19:27.757Z,11.36
2023-11-12T14:21:56.672Z,11.32
2023-11-12T14:24:26.585Z,11.42
2023-11-12T14:26:52.492Z,11.27
2023-11-12T14:29:19.497Z,11.39
2023-11-12T14:31:46.597Z,11.38
2023-11-12T14:34:13.248Z,11.49
2023-11-12T14:36:40.819Z,11.37
2023-11-12T14:39:11.002Z,11.44
2023-11-12T14:41:41.139Z,11.37
2023-11-12T14:44:07.771Z,11.24
2023-11-12T14:46:36.424Z,11.26
2023-11-12T14:49:05.788Z,11.26
2023-11-12T14:51:33.830Z,11.30
2023-11-12T14:54:05.584Z,11.09
2023-11-12T14:56:32.652Z,11.01
2023-11-12T14:58:58.578Z,10.84
2023-11-12T15:01:24.500Z,10.86
2023-11-12T15:03:50.350Z,10.63
2023-11-12T15:06:16.220Z,10.56
2023-11-12T15:08:42.045Z,10.47
2023-11-12T15:11:08.921Z,10.41
2023-11-12T15:13:34.730Z,10.26
2023-11-12T15:16:00.608Z,10.15
2023-11-12T15:18:27.699Z,10.05
2023-11-12T15:20:53.545Z,9.87
2023-11-12T15:23:19.327Z,9.81
2023-11-12T15:25:45.134Z,9.57
2023-11-12T15:28:11.448Z,9.58
2023-11-12T15:30:37.315Z,9.29
2023-11-12T15:33:06.819Z,9.29
2023-11-12T15:35:33.153Z,9.21
2023-11-12T15:37:59.018Z,9.11
2023-11-12T15:40:24.864Z,9.07
2023-11-12T15:42:52.384Z,8.92
2023-11-12T15:45:18.877Z,8.86
2023-11-12T15:47:46.622Z,8.79
2023-11-12T15:50:13.963Z,8.46
2023-11-12T15:52:40.745Z,8.39
2023-11-12T15:55:08.888Z,8.19
2023-11-12T15:57:37.346Z,8.25
2023-11-12T16:00:08.270Z,8.24
2023-11-12T16:02:38.617Z,8.10
2023-11-12T16:05:05.202Z,8.13
2023-11-12T16:07:31.343Z,7.88
2023-11-12T16:09:58.170Z,7.89
2023-11-12T16:12:25.373Z,7.72
2023-11-12T16:14:51.622Z,7.82
2023-11-12T16:17:17.471Z,7.75
2023-11-12T16:19:43.261Z,7.72
2023-11-12T16:22:09.323Z,7.41
2023-11-12T16:24:35.174Z,7.51
2023-11-12T16:27:01.056Z,7.25
2023-11-12T16:29:26.910Z,7.28
2023-11-12T16:32:09.462Z,7.31
2023-11-12T16:34:36.317Z,7.22
2023-11-12T16:37:02.704Z,7.19
2023-11-12T16:39:32.026Z,6.89
2023-11-12T16:41:58.029Z,7.08
2023-11-12T16:44:24.892Z,6.85
2023-11-12T16:46:51.972Z,7.04
2023-11-12T16:49:17.826Z,6.97
2023-11-12T16:51:43.723Z,6.95
2023-11-12T16:54:09.564Z,6.79
2023-11-12T16:56:35.942Z,6.68
2023-11-12T16:59:01.942Z,6.61
2023-11-12T17:01:27.863Z,6.56
2023-11-12T17:03:53.894Z,6.47
2023-11-12T17:06:19.766Z,6.49
2023-11-12T17:08:45.539Z,6.42
2023-11-12T17:11:11.459Z,6.47
2023-11-12T17:13:37.307Z,6.43
2023-11-12T17:16:03.423Z,6.35
2023-11-12T17:18:29.398Z,6.19
2023-11-12T17:20:55.261Z,6.24
2023-11-12T17:23:21.134Z,6.10
2023-11-12T17:25:48.828Z,6.18
2023-11-12T17:28:14.648Z,6.24
2023-11-12T17:30:40.532Z,6.21
2023-11-12T17:33:07.429Z,6.17
2023-11-12T17:35:34.003Z,5.91
2023-11-12T17:37:59.871Z,5.93
2023-11-12T17:40:27.724Z,5.95
2023-11-12T17:42:53.528Z,5.78
2023-11-12T17:45:19.514Z,5.88
2023-11-12T17:47:45.380Z,5.64
2023-11-12T17:50:11.280Z,5.66
2023-11-12T17:52:37.142Z,5.49
2023-11-12T17:55:03.298Z,5.62
2023-11-12T17:57:31.099Z,5.60
2023-11-12T17:59:56.973Z,5.73
2023-11-12T18:02:23.579Z,5.49
2023-11-12T18:04:49.548Z,5.44
2023-11-12T18:07:15.586Z,5.49
2023-11-12T18:09:41.480Z,5.43
2023-11-12T18:12:07.579Z,5.40
2023-11-12T18:14:33.424Z,5.38
2023-11-12T18:16:59.648Z,5.50
2023-11-12T18:21:51.752Z,5.49
2023-11-12T18:24:17.591Z,5.46
2023-11-12T18:26:51.429Z,5.52
2023-11-12T18:29:18.161Z,5.42
2023-11-12T18:31:44.221Z,5.43
2023-11-12T18:34:10.747Z,5.26
2023-11-12T18:36:36.818Z,5.35
2023-11-12T18:39:02.923Z,5.32
2023-11-12T18:41:29.700Z,5.15
2023-11-12T18:43:55.589Z,5.17
2023-11-12T18:46:22.185Z,5.17
2023-11-12T18:48:49.610Z,4.87
2023-11-12T18:51:17.099Z,4.92
2023-11-12T18:53:44.707Z,4.88
2023-11-12T18:56:10.791Z,4.94
2023-11-12T18:58:36.725Z,4.99
2023-11-12T19:01:02.656Z,4.99
2023-11-12T19:03:29.679Z,4.94
2023-11-12T19:05:55.547Z,4.64
2023-11-12T19:08:21.427Z,4.67
2023-11-12T19:10:49.002Z,4.77
2023-11-12T19:13:14.916Z,4.72
2023-11-12T19:15:40.796Z,4.74
2023-11-12T19:18:06.694Z,4.59
2023-11-12T19:20:36.959Z,4.65
2023-11-12T19:23:03.445Z,4.52
2023-11-12T19:25:29.456Z,4.59
2023-11-12T19:27:55.409Z,4.66
2023-11-12T19:30:23.625Z,4.42
2023-11-12T19:32:50.292Z,4.48
2023-11-12T19:35:17.111Z,4.44
2023-11-12T19:37:44.591Z,4.43
2023-11-12T19:40:16.693Z,4.54
2023-11-12T19:42:42.749Z,4.56
2023-11-12T19:45:12.077Z,4.51
2023-11-12T19:47:37.922Z,4.39
2023-11-12T19:50:06.464Z,4.18
2023-11-12T19:52:33.540Z,4.47
2023-11-12T19:54:59.425Z,4.38
2023-11-12T19:57:26.938Z,4.32
2023-11-12T19:59:54.142Z,4.39
2023-11-12T20:02:19.943Z,4.22
2023-11-12T20:04:45.773Z,4.09
2023-11-12T20:07:11.924Z,4.15
2023-11-12T20:09:38.929Z,4.22
2023-11-12T20:12:06.261Z,4.07
2023-11-12T20:14:32.166Z,4.18
2023-11-12T20:17:01.145Z,3.96
2023-11-12T20:19:27.933Z,4.16
2023-11-12T20:21:54.335Z,4.01
2023-11-12T20:24:20.459Z,4.13
2023-11-12T20:26:51.719Z,4.08
2023-11-12T20:29:21.206Z,4.17
2023-11-12T20:31:51.772Z,4.09
2023-11-12T20:34:17.854Z,4.24
2023-11-12T20:36:47.044Z,4.30
2023-11-12T20:39:16.135Z,4.29
2023-11-12T20:41:46.318Z,4.22
2023-11-12T20:44:13.511Z,4.09
2023-11-12T20:46:45.276Z,4.10
2023-11-12T20:49:16.315Z,4.25
2023-11-12T20:51:51.701Z,4.31
2023-11-12T20:54:17.594Z,4.23
2023-11-12T20:56:43.710Z,4.22
2023-11-12T20:59:10.319Z,4.23
2023-11-12T21:01:36.969Z,4.23
2023-11-12T21:04:03.419Z,4.17
2023-11-12T21:06:30.235Z,4.16
2023-11-12T21:08:56.256Z,4.02
2023-11-12T21:11:22.773Z,4.16
2023-11-12T21:13:51.068Z,4.15
2023-11-12T21:16:20.546Z,4.09
2023-11-12T21:18:47.722Z,4.06
2023-11-12T21:21:16.061Z,4.07
2023-11-12T21:23:41.867Z,4.06
2023-11-12T21:26:13.224Z,3.93
2023-11-12T21:28:39.081Z,4.09
2023-11-12T21:31:06.112Z,4.10
2023-11-12T21:33:32.315Z,3.95
2023-11-12T21:35:59.454Z,3.98
2023-11-12T21:38:25.430Z,4.01
2023-11-12T21:40:51.323Z,4.11
2023-11-12T21:43:17.203Z,4.10
2023-11-12T21:45:45.063Z,3.94
2023-11-12T21:48:12.386Z,4.01
2023-11-12T21:50:38.421Z,3.97
2023-11-12T21:53:04.417Z,4.13
2023-11-12T21:55:30.249Z,4.14
2023-11-12T21:57:56.608Z,4.20
2023-11-12T22:00:26.689Z,4.14
2023-11-12T22:02:56.484Z,4.28
2023-11-12T22:05:25.020Z,4.38
2023-11-12T22:07:51.217Z,4.21
2023-11-12T22:10:17.201Z,4.39
2023-11-12T22:12:44.069Z,4.40
2023-11-12T22:15:13.624Z,4.28
2023-11-12T22:17:40.697Z,4.45
2023-11-12T22:20:06.992Z,4.50
2023-11-12T22:22:33.141Z,4.48
2023-11-12T22:25:08.695Z,4.45
2023-11-12T22:27:43.469Z,4.43
2023-11-12T22:30:11.536Z,4.43
2023-11-12T22:32:37.875Z,4.35
2023-11-12T22:35:06.595Z,4.45
2023-11-12T22:37:32.453Z,4.48
2023-11-12T22:39:58.470Z,4.46
2023-11-12T22:42:24.722Z,4.44
2023-11-12T22:44:50.541Z,4.54
2023-11-12T22:47:16.410Z,4.34
2023-11-12T22:49:42.234Z,4.51
2023-11-12T22:52:08.036Z,4.39
2023-11-12T22:54:34.850Z,4.29
2023-11-12T22:57:00.680Z,4.43
2023-11-12T22:59:26.633Z,4.40
2023-11-12T23:01:52.518Z,4.41
2023-11-12T23:04:18.629Z,4.34
2023-11-12T23:06:44.979Z,4.38
2023-11-12T23:09:11.672Z,4.49
2023-11-12T23:11:37.464Z,4.48
2023-11-12T23:14:04.564Z,4.31
2023-11-12T23:16:30.442Z,4.43
2023-11-12T23:18:56.364Z,4.59
2023-11-12T23:21:22.206Z,4.50
2023-11-12T23:23:48.094Z,4.42
2023-11-12T23:26:13.945Z,4.55
2023-11-12T23:28:39.780Z,4.49
2023-11-12T23:31:05.664Z,4.70
2023-11-12T23:33:31.595Z,4.69
2023-11-12T23:35:57.570Z,4.74
2023-11-12T23:38:23.385Z,4.67
2023-11-12T23:40:49.250Z,4.76
2023-11-12T23:43:16.199Z,4.60
2023-11-12T23:45:42.426Z,4.75
2023-11-12T23:48:08.598Z,4.83
2023-11-12T23:50:35.103Z,4.75
2023-11-12T23:53:00.933Z,4.72
2023-11-12T23:55:26.852Z,4.87
2023-11-12T23:57:52.903Z,4.87
